Time;durP1;ratioP1;P1;durP2;ratioP2;P2;SDS_P1;SDS_P2;PMS_P1;PMS_P2;Temp;Humidity;BMP_temperature;BMP_pressure;BME280_temperature;BME280_humidity;BME280_pressure;Samples;Min_cycle;Max_cycle;Signal;HPM_P1;HPM_P2
2024/05/04 00:00:53;;;;;;;6.93;3.22;;;16.60;96.30;20.30;100118.00;;;;5459669;26;20011;-55
2024/05/04 00:03:19;;;;;;;8.32;3.42;;;16.60;96.90;20.30;100112.00;;;;5459475;26;19991;-51
2024/05/04 00:05:46;;;;;;;6.20;3.38;;;16.40;97.40;20.30;100117.00;;;;5459104;26;20063;-51
2024/05/04 00:08:12;;;;;;;12.13;3.45;;;16.40;98.10;20.20;100118.00;;;;5457811;26;19987;-50
2024/05/04 00:10:38;;;;;;;8.25;3.67;;;16.40;98.70;20.10;100113.00;;;;5457153;26;20013;-51
2024/05/04 00:13:04;;;;;;;8.68;3.40;;;16.30;98.60;20.10;100119.00;;;;5459228;26;19999;-50
2024/05/04 00:15:30;;;;;;;9.48;3.40;;;16.30;99.20;19.90;100115.00;;;;5458586;26;20028;-51
2024/05/04 00:17:57;;;;;;;7.53;3.40;;;16.30;98.90;19.90;100124.00;;;;5459681;26;20006;-49
2024/05/04 00:20:23;;;;;;;6.72;3.67;;;16.20;99.90;20.00;100116.00;;;;5459282;26;19991;-60
2024/05/04 00:22:49;;;;;;;7.22;3.90;;;16.10;99.90;20.00;100113.00;;;;5458587;26;19999;-50
2024/05/04 00:25:15;;;;;;;6.90;3.53;;;16.10;99.90;20.00;100114.00;;;;5459658;26;20103;-51
2024/05/04 00:27:41;;;;;;;8.52;3.58;;;16.00;99.90;19.90;100119.00;;;;5459075;26;20439;-55
2024/05/04 00:30:08;;;;;;;6.68;3.65;;;16.00;99.90;19.80;100112.00;;;;5459353;26;20001;-52
2024/05/04 00:32:35;;;;;;;8.13;3.90;;;15.90;99.90;19.70;100115.00;;;;5459134;26;19990;-57
2024/05/04 00:35:01;;;;;;;7.90;3.55;;;15.80;99.90;19.50;100115.00;;;;5459338;26;19998;-50
2024/05/04 00:37:27;;;;;;;5.85;3.72;;;15.70;99.90;19.50;100119.00;;;;5459440;26;20071;-58
2024/05/04 00:39:54;;;;;;;6.47;4.07;;;15.60;99.90;19.40;100117.00;;;;5458592;26;19995;-51
2024/05/04 00:42:20;;;;;;;8.30;3.90;;;15.70;99.90;19.40;100122.00;;;;5459005;26;19995;-53
2024/05/04 00:44:46;;;;;;;5.88;3.55;;;15.70;99.90;19.60;100119.00;;;;5457357;26;20064;-50
2024/05/04 00:47:13;;;;;;;8.80;3.80;;;15.70;99.90;19.20;100107.00;;;;5457762;26;19991;-51
2024/05/04 00:49:39;;;;;;;8.30;3.70;;;15.70;99.90;19.00;100113.00;;;;5457964;26;19998;-59
2024/05/04 00:52:06;;;;;;;7.93;3.95;;;15.70;99.90;18.80;100118.00;;;;5457464;26;20092;-56
2024/05/04 00:54:32;;;;;;;7.35;3.63;;;15.60;99.90;19.10;100108.00;;;;5457342;26;20027;-51
2024/05/04 00:57:00;;;;;;;10.23;3.83;;;15.60;99.90;19.00;100111.00;;;;5458108;26;19997;-50
2024/05/04 00:59:28;;;;;;;10.65;4.30;;;15.60;99.90;19.10;100111.00;;;;5458058;26;20104;-50
2024/05/04 01:01:56;;;;;;;8.95;4.07;;;15.60;99.90;19.20;100110.00;;;;5458342;26;20037;-50
2024/05/04 01:04:24;;;;;;;7.70;3.88;;;15.60;99.90;19.40;100116.00;;;;5458210;26;20352;-50
2024/05/04 01:06:51;;;;;;;10.60;4.07;;;15.50;99.90;19.40;100114.00;;;;5458023;26;19986;-50
2024/05/04 01:09:17;;;;;;;10.80;3.72;;;15.50;99.90;19.40;100113.00;;;;5458034;26;20463;-50
2024/05/04 01:11:43;;;;;;;6.95;4.30;;;15.50;99.90;18.90;100114.00;;;;5456406;26;19995;-50
2024/05/04 01:14:09;;;;;;;7.55;3.70;;;15.40;99.90;19.20;100107.00;;;;5455944;26;20015;-52
2024/05/04 01:16:36;;;;;;;6.25;4.10;;;15.40;99.90;18.90;100114.00;;;;5458084;26;20305;-70
2024/05/04 01:19:02;;;;;;;13.23;4.53;;;15.40;99.90;18.70;100114.00;;;;5458158;26;20401;-50
2024/05/04 01:21:28;;;;;;;9.38;5.63;;;15.40;99.90;18.80;100114.00;;;;5457629;26;20432;-51
2024/05/04 01:23:55;;;;;;;13.30;6.60;;;15.40;99.90;18.70;100111.00;;;;5457610;26;20459;-52
2024/05/04 01:26:21;;;;;;;13.05;6.47;;;15.30;99.90;19.00;100104.00;;;;5459292;26;19998;-52
2024/05/04 01:28:47;;;;;;;13.50;7.03;;;15.30;99.90;19.10;100107.00;;;;5457376;26;20324;-50
2024/05/04 01:31:14;;;;;;;13.63;7.75;;;15.30;99.90;19.20;100100.00;;;;5457062;26;20382;-50
2024/05/04 01:33:40;;;;;;;14.80;6.88;;;15.30;99.90;19.10;100103.00;;;;5457612;26;20001;-51
2024/05/04 01:36:06;;;;;;;12.20;8.23;;;15.20;99.90;19.00;100103.00;;;;5457308;26;20032;-51
2024/05/04 01:38:32;;;;;;;11.30;7.13;;;15.10;99.90;19.00;100097.00;;;;5456386;26;19987;-50
2024/05/04 01:40:58;;;;;;;15.25;8.98;;;15.00;99.90;19.00;100104.00;;;;5458224;26;19990;-50
2024/05/04 01:43:24;;;;;;;17.40;9.93;;;15.00;99.90;19.00;100104.00;;;;5457542;26;20005;-50
2024/05/04 01:45:50;;;;;;;13.48;8.32;;;15.00;99.90;18.90;100104.00;;;;5455579;26;20444;-50
2024/05/04 01:48:17;;;;;;;12.55;8.20;;;15.00;99.90;18.90;100104.00;;;;5455651;26;19995;-51
2024/05/04 01:50:43;;;;;;;11.68;8.95;;;14.90;99.90;18.90;100101.00;;;;5457541;26;19987;-51
2024/05/04 01:53:09;;;;;;;17.80;8.75;;;14.90;99.90;18.90;100102.00;;;;5457055;26;20006;-50
2024/05/04 01:55:35;;;;;;;15.38;10.13;;;14.80;99.90;18.80;100101.00;;;;5456536;26;19991;-51
2024/05/04 01:58:03;;;;;;;13.85;10.48;;;14.80;99.90;18.70;100102.00;;;;5454858;26;20002;-59
2024/05/04 02:00:29;;;;;;;18.02;10.93;;;14.80;99.90;18.70;100100.00;;;;5457445;26;20006;-50
2024/05/04 02:02:55;;;;;;;18.55;11.18;;;14.70;99.90;18.70;100097.00;;;;5456315;26;19995;-50
2024/05/04 02:05:21;;;;;;;18.13;10.45;;;14.70;99.90;18.60;100097.00;;;;5455772;26;20438;-50
2024/05/04 02:07:48;;;;;;;17.73;10.75;;;14.60;99.90;18.60;100100.00;;;;5454469;26;19995;-52
2024/05/04 02:10:14;;;;;;;15.48;12.15;;;14.60;99.90;18.50;100099.00;;;;5455776;26;19995;-50
2024/05/04 02:12:40;;;;;;;18.52;12.20;;;14.50;99.90;18.50;100099.00;;;;5456932;26;20412;-50
2024/05/04 02:15:07;;;;;;;19.80;12.60;;;14.50;99.90;18.60;100103.00;;;;5456083;26;20075;-51
2024/05/04 02:17:33;;;;;;;22.73;13.35;;;14.50;99.90;18.60;100105.00;;;;5454236;26;20001;-50
2024/05/04 02:19:59;;;;;;;20.10;12.60;;;14.50;99.90;18.40;100105.00;;;;5454551;26;20071;-52
2024/05/04 02:22:25;;;;;;;21.23;12.15;;;14.40;99.90;18.40;100110.00;;;;5454173;26;19990;-51
2024/05/04 02:24:51;;;;;;;20.05;11.63;;;14.40;99.90;18.40;100102.00;;;;5455513;26;20431;-51
2024/05/04 02:27:17;;;;;;;26.13;11.88;;;14.40;99.90;18.40;100105.00;;;;5453924;26;19990;-50
2024/05/04 02:29:43;;;;;;;15.98;11.18;;;14.50;99.90;18.50;100109.00;;;;5455256;26;19991;-51
2024/05/04 02:32:09;;;;;;;20.98;12.00;;;14.50;99.90;18.40;100104.00;;;;5456293;26;20003;-49
2024/05/04 02:34:35;;;;;;;17.75;10.88;;;14.40;99.90;18.30;100122.00;;;;5454534;26;19995;-50
2024/05/04 02:37:02;;;;;;;15.48;9.52;;;14.40;99.90;18.40;100104.00;;;;5456920;26;19991;-50
2024/05/04 02:39:28;;;;;;;18.02;9.88;;;14.30;99.90;18.20;100120.00;;;;5454120;26;20076;-50
2024/05/04 02:41:54;;;;;;;15.80;8.82;;;14.30;99.90;18.30;100115.00;;;;5456491;26;19999;-50
2024/05/04 02:44:20;;;;;;;14.50;9.65;;;14.30;99.90;18.20;100121.00;;;;5455110;26;20003;-49
2024/05/04 02:46:46;;;;;;;18.58;9.65;;;14.30;99.90;18.30;100116.00;;;;5453830;26;19991;-50
2024/05/04 02:49:13;;;;;;;15.63;8.38;;;14.30;99.90;18.30;100122.00;;;;5453653;26;20067;-50
2024/05/04 02:51:45;;;;;;;13.73;8.95;;;14.20;99.90;18.40;100110.00;;;;5456166;26;19994;-49
2024/05/04 02:54:11;;;;;;;17.05;8.48;;;14.20;99.90;18.10;100120.00;;;;5455027;26;19995;-50
2024/05/04 02:56:38;;;;;;;11.30;7.90;;;14.20;99.90;18.20;100119.00;;;;5454850;26;20397;-50
2024/05/04 02:59:04;;;;;;;13.43;8.15;;;14.20;99.90;17.90;100119.00;;;;5453702;26;20005;-50
2024/05/04 03:01:30;;;;;;;15.55;7.93;;;14.10;99.90;18.00;100124.00;;;;5453395;26;19999;-49
2024/05/04 03:03:56;;;;;;;12.80;7.50;;;14.10;99.90;17.90;100133.00;;;;5453711;26;20323;-50
2024/05/04 03:06:22;;;;;;;13.15;6.95;;;14.10;99.90;18.00;100124.00;;;;5455206;26;20448;-57
2024/05/04 03:08:48;;;;;;;10.00;6.50;;;14.10;99.90;18.00;100136.00;;;;5452860;26;20003;-51
2024/05/04 03:11:14;;;;;;;8.85;7.15;;;14.10;99.90;18.00;100132.00;;;;5454663;26;20002;-50
2024/05/04 03:13:40;;;;;;;12.73;6.75;;;14.00;99.90;18.00;100136.00;;;;5453859;26;20006;-54
2024/05/04 03:16:06;;;;;;;16.52;6.57;;;14.10;99.90;18.00;100146.00;;;;5454431;26;20068;-51
2024/05/04 03:18:32;;;;;;;17.35;6.82;;;14.00;99.90;18.00;100144.00;;;;5455391;26;19991;-54
2024/05/04 03:21:00;;;;;;;12.70;6.78;;;14.00;99.90;18.00;100141.00;;;;5454230;26;20015;-49
2024/05/04 03:23:26;;;;;;;12.15;6.20;;;14.00;99.90;18.00;100140.00;;;;5454558;26;19999;-50
2024/05/04 03:25:52;;;;;;;16.77;6.93;;;14.00;99.90;17.90;100142.00;;;;5454379;26;20011;-51
2024/05/04 03:28:19;;;;;;;23.52;6.90;;;14.00;99.90;18.00;100143.00;;;;5453741;26;19991;-56
2024/05/04 03:30:45;;;;;;;13.93;6.15;;;14.00;99.90;17.90;100143.00;;;;5454740;26;20005;-51
2024/05/04 03:33:11;;;;;;;12.98;5.38;;;14.00;99.90;18.00;100147.00;;;;5454977;26;19987;-56
2024/05/04 03:35:37;;;;;;;6.72;5.25;;;14.00;99.90;18.00;100146.00;;;;5454880;26;19995;-52
2024/05/04 03:38:03;;;;;;;12.35;5.35;;;14.00;99.90;18.00;100152.00;;;;5454764;26;20001;-50
2024/05/04 03:40:29;;;;;;;9.40;4.53;;;14.00;99.90;18.10;100150.00;;;;5454634;26;20445;-54
2024/05/04 03:42:56;;;;;;;15.55;5.10;;;14.00;99.90;18.10;100146.00;;;;5453568;26;19998;-51
2024/05/04 03:45:22;;;;;;;7.82;4.53;;;14.10;99.90;18.20;100153.00;;;;5456394;26;20079;-50
2024/05/04 03:47:48;;;;;;;8.73;4.80;;;14.20;99.90;18.30;100152.00;;;;5459138;26;19991;-50
2024/05/04 03:50:14;;;;;;;7.93;4.35;;;14.30;99.90;18.40;100141.00;;;;5458642;26;20009;-50
2024/05/04 03:52:40;;;;;;;9.23;4.57;;;14.30;99.90;18.50;100146.00;;;;5459141;26;19999;-50
2024/05/04 03:55:06;;;;;;;9.30;4.15;;;14.40;99.90;18.40;100151.00;;;;5458831;26;19999;-49
2024/05/04 03:57:32;;;;;;;7.75;4.38;;;14.40;99.90;18.40;100147.00;;;;5456598;26;19994;-50
2024/05/04 03:59:58;;;;;;;7.50;3.95;;;14.50;99.90;18.50;100148.00;;;;5458452;26;20006;-49
2024/05/04 04:02:28;;;;;;;7.25;4.47;;;14.50;99.90;18.40;100147.00;;;;5457952;26;19991;-51
2024/05/04 04:04:55;;;;;;;13.60;4.60;;;14.50;99.90;18.60;100140.00;;;;5458007;26;20031;-52
2024/05/04 04:07:21;;;;;;;6.18;4.00;;;14.60;99.90;18.50;100145.00;;;;5457368;26;19991;-49
2024/05/04 04:09:47;;;;;;;9.45;4.13;;;14.60;99.90;18.50;100147.00;;;;5458294;26;20002;-50
2024/05/04 04:12:15;;;;;;;7.85;3.88;;;14.60;99.90;18.50;100141.00;;;;5458224;26;19990;-50
2024/05/04 04:14:41;;;;;;;10.82;4.30;;;14.70;99.90;18.50;100144.00;;;;5457128;26;19991;-55
2024/05/04 04:17:08;;;;;;;9.45;4.10;;;14.70;99.90;18.60;100153.00;;;;5457862;26;19999;-57
2024/05/04 04:19:35;;;;;;;12.20;4.75;;;14.70;99.90;18.70;100160.00;;;;5458278;26;19999;-60
2024/05/04 04:22:01;;;;;;;7.63;4.30;;;14.70;99.90;18.80;100161.00;;;;5457060;26;19991;-49
2024/05/04 04:24:27;;;;;;;6.80;4.35;;;14.80;99.90;18.90;100163.00;;;;5458734;26;20006;-51
2024/05/04 04:26:54;;;;;;;9.40;4.50;;;14.80;99.90;18.90;100154.00;;;;5457646;26;19987;-52
2024/05/04 04:29:20;;;;;;;10.73;4.30;;;14.90;99.90;19.00;100151.00;;;;5457254;26;20009;-53
2024/05/04 04:31:46;;;;;;;6.68;4.13;;;14.90;99.90;18.70;100152.00;;;;5457339;26;20062;-51
2024/05/04 04:34:12;;;;;;;7.97;3.75;;;15.00;99.90;18.90;100157.00;;;;5457174;26;20009;-57
2024/05/04 04:36:38;;;;;;;11.13;4.18;;;15.00;99.90;18.90;100161.00;;;;5457051;26;19998;-51
2024/05/04 04:39:08;;;;;;;7.65;3.97;;;15.10;99.90;18.80;100161.00;;;;5457899;26;20470;-50
2024/05/04 04:41:34;;;;;;;7.93;4.63;;;15.30;99.90;18.70;100157.00;;;;5457495;26;20075;-51
2024/05/04 04:44:00;;;;;;;10.45;4.25;;;15.40;99.90;19.20;100162.00;;;;5458104;26;19990;-50
2024/05/04 04:46:27;;;;;;;7.35;4.22;;;15.50;99.90;19.30;100158.00;;;;5457880;26;19994;-50
2024/05/04 04:48:53;;;;;;;7.40;3.90;;;15.50;99.90;19.30;100170.00;;;;5457329;26;20342;-50
2024/05/04 04:51:19;;;;;;;10.82;4.25;;;15.50;99.90;19.40;100165.00;;;;5455095;26;20502;-52
2024/05/04 04:53:45;;;;;;;15.57;4.72;;;15.60;99.90;19.30;100162.00;;;;5457345;26;20429;-49
2024/05/04 04:56:11;;;;;;;7.60;4.30;;;15.70;99.90;19.20;100164.00;;;;5455376;26;20009;-51
2024/05/04 04:58:37;;;;;;;10.20;4.30;;;15.70;99.90;19.50;100166.00;;;;5456873;26;19995;-49
2024/05/04 05:01:04;;;;;;;8.73;4.00;;;15.80;99.90;19.60;100166.00;;;;5457871;26;20004;-49
2024/05/04 05:03:30;;;;;;;5.97;4.10;;;15.80;99.90;19.70;100169.00;;;;5457781;26;20086;-49
2024/05/04 05:05:56;;;;;;;8.02;4.10;;;16.00;99.90;19.70;100170.00;;;;5456864;26;20030;-51
2024/05/04 05:08:22;;;;;;;10.88;4.40;;;16.10;99.90;19.40;100172.00;;;;5456905;26;20007;-51
2024/05/04 05:10:49;;;;;;;6.10;4.13;;;16.10;99.90;19.20;100173.00;;;;5456787;26;20006;-51
2024/05/04 05:13:15;;;;;;;13.27;4.28;;;16.20;99.90;19.50;100175.00;;;;5455698;26;19991;-54
2024/05/04 05:15:41;;;;;;;5.93;3.72;;;16.20;99.90;19.10;100187.00;;;;5456159;26;20009;-49
2024/05/04 05:18:07;;;;;;;6.05;4.47;;;16.20;99.90;19.50;100180.00;;;;5457023;26;20444;-50
2024/05/04 05:20:33;;;;;;;4.65;3.80;;;16.30;99.90;19.70;100189.00;;;;5457293;26;19999;-51
2024/05/04 05:22:59;;;;;;;8.90;3.70;;;16.30;99.90;20.00;100180.00;;;;5456641;26;20328;-50
2024/05/04 05:25:25;;;;;;;8.35;4.03;;;16.30;99.90;19.90;100184.00;;;;5458214;26;19997;-51
2024/05/04 05:27:51;;;;;;;4.88;3.72;;;16.30;99.90;20.10;100190.00;;;;5456813;26;19995;-50
2024/05/04 05:30:17;;;;;;;8.65;4.20;;;16.30;99.90;20.30;100188.00;;;;5456953;26;20306;-51
2024/05/04 05:32:44;;;;;;;10.50;4.47;;;16.40;99.90;20.00;100184.00;;;;5456926;26;20015;-50
2024/05/04 05:35:10;;;;;;;7.22;3.80;;;16.50;99.90;19.90;100187.00;;;;5456647;26;20070;-50
2024/05/04 05:37:38;;;;;;;8.43;3.47;;;16.70;99.90;20.10;100188.00;;;;5457712;26;19991;-50
2024/05/04 05:40:06;;;;;;;6.82;4.00;;;16.70;99.90;20.00;100182.00;;;;5456724;26;19995;-50
2024/05/04 05:42:32;;;;;;;8.18;4.03;;;16.80;99.90;19.90;100182.00;;;;5456055;26;20124;-49
2024/05/04 05:44:58;;;;;;;8.27;4.05;;;16.80;99.90;20.00;100185.00;;;;5457392;26;20130;-50
2024/05/04 05:47:24;;;;;;;8.55;3.75;;;16.90;99.90;20.70;100179.00;;;;5457059;26;19995;-52
2024/05/04 05:49:50;;;;;;;9.30;3.80;;;17.00;99.90;20.50;100187.00;;;;5457564;26;20121;-50
2024/05/04 05:52:17;;;;;;;8.40;3.78;;;17.20;99.50;20.50;100189.00;;;;5454495;26;19991;-49
2024/05/04 05:54:43;;;;;;;7.95;3.38;;;17.30;99.50;20.90;100182.00;;;;5457041;26;20074;-49
2024/05/04 05:57:09;;;;;;;11.55;3.65;;;17.40;99.20;21.10;100188.00;;;;5454601;26;19999;-51
2024/05/04 05:59:35;;;;;;;7.93;3.50;;;17.50;98.80;21.30;100192.00;;;;5456362;26;19998;-51
2024/05/04 06:02:02;;;;;;;8.80;3.50;;;17.70;98.50;21.10;100197.00;;;;5456973;26;19995;-50
2024/05/04 06:04:28;;;;;;;9.43;3.75;;;17.80;97.90;21.00;100197.00;;;;5456042;26;19994;-51
2024/05/04 06:06:54;;;;;;;7.05;3.70;;;17.80;97.90;21.20;100201.00;;;;5456749;26;19999;-51
2024/05/04 06:09:20;;;;;;;6.15;3.47;;;17.80;98.70;21.30;100205.00;;;;5454518;26;20002;-53
2024/05/04 06:11:46;;;;;;;7.10;3.58;;;17.90;98.30;21.20;100215.00;;;;5456026;26;20035;-50
2024/05/04 06:14:12;;;;;;;5.45;3.35;;;18.00;97.70;21.30;100210.00;;;;5454584;26;19987;-49
2024/05/04 06:16:38;;;;;;;5.43;3.22;;;18.10;97.30;21.50;100208.00;;;;5455514;26;19999;-50
2024/05/04 06:19:04;;;;;;;10.02;3.38;;;18.10;97.30;21.90;100216.00;;;;5456357;26;19991;-49
2024/05/04 06:21:30;;;;;;;7.50;3.35;;;18.30;97.50;21.90;100221.00;;;;5456036;26;19995;-51
2024/05/04 06:23:56;;;;;;;9.80;3.67;;;18.40;96.90;22.10;100223.00;;;;5456756;26;20414;-51
2024/05/04 06:26:22;;;;;;;8.00;3.72;;;18.50;96.90;21.70;100220.00;;;;5456000;26;19991;-51
2024/05/04 06:28:48;;;;;;;6.00;3.45;;;18.50;96.90;21.80;100220.00;;;;5454408;26;20002;-51
2024/05/04 06:31:15;;;;;;;5.20;3.33;;;18.60;96.10;22.40;100221.00;;;;5456230;26;20370;-50
2024/05/04 06:33:41;;;;;;;15.60;2.95;;;18.70;96.00;22.40;100225.00;;;;5457227;26;20057;-50
2024/05/04 06:36:07;;;;;;;7.82;3.10;;;18.80;95.80;21.90;100227.00;;;;5457212;26;20063;-49
2024/05/04 06:38:33;;;;;;;14.25;3.25;;;18.90;95.60;22.20;100226.00;;;;5454986;26;20452;-50
2024/05/04 06:41:04;;;;;;;4.45;3.05;;;18.90;95.70;22.50;100225.00;;;;5455902;26;19999;-50
2024/05/04 06:43:30;;;;;;;4.28;3.05;;;19.20;94.40;22.80;100227.00;;;;5447856;26;20018;-50
2024/05/04 06:45:57;;;;;;;7.55;3.00;;;19.30;94.00;22.80;100226.00;;;;5420945;26;20006;-50
2024/05/04 06:48:23;;;;;;;7.05;3.42;;;19.40;93.60;23.00;100234.00;;;;5420015;26;20000;-51
2024/05/04 06:50:49;;;;;;;7.82;2.80;;;19.50;93.90;23.30;100231.00;;;;5419218;26;20003;-50
2024/05/04 06:53:15;;;;;;;6.82;3.53;;;19.70;93.50;23.50;100238.00;;;;5419059;26;19999;-51
2024/05/04 06:55:41;;;;;;;10.07;3.35;;;19.90;93.30;23.60;100230.00;;;;5419388;26;20068;-51
2024/05/04 06:58:07;;;;;;;3.55;2.97;;;20.00;92.40;23.80;100235.00;;;;5419976;26;19999;-48
2024/05/04 07:00:33;;;;;;;9.60;3.22;;;20.10;92.00;23.00;100234.00;;;;5419880;26;20465;-50
2024/05/04 07:02:59;;;;;;;6.10;3.35;;;20.10;92.10;22.80;100246.00;;;;5419394;26;20071;-51
2024/05/04 07:05:26;;;;;;;6.50;2.97;;;19.90;92.10;23.40;100237.00;;;;5419638;26;19996;-50
2024/05/04 07:07:52;;;;;;;7.43;3.13;;;20.00;92.10;23.90;100241.00;;;;5420141;26;20006;-50
2024/05/04 07:10:18;;;;;;;5.15;3.10;;;20.20;92.20;23.90;100247.00;;;;5419184;26;19998;-51
2024/05/04 07:12:44;;;;;;;7.45;3.58;;;20.30;91.60;23.40;100244.00;;;;5419981;26;20006;-52
2024/05/04 07:15:10;;;;;;;4.97;2.92;;;20.40;91.20;23.60;100239.00;;;;5419709;26;19992;-50
2024/05/04 07:17:37;;;;;;;6.28;3.15;;;20.40;91.20;24.00;100250.00;;;;5420468;26;20003;-51
2024/05/04 07:20:03;;;;;;;8.23;3.65;;;20.50;91.20;23.90;100251.00;;;;5420753;26;20024;-50
2024/05/04 07:22:30;;;;;;;7.22;2.90;;;20.70;90.60;24.30;100251.00;;;;5423262;26;19996;-49
2024/05/04 07:24:57;;;;;;;4.25;3.00;;;21.00;90.10;24.40;100245.00;;;;5451214;26;19992;-49
2024/05/04 07:27:23;;;;;;;6.78;2.85;;;21.20;89.40;24.30;100241.00;;;;5451629;26;20326;-49
2024/05/04 07:29:49;;;;;;;8.70;2.53;;;21.20;89.40;24.40;100249.00;;;;5422752;26;20003;-49
2024/05/04 07:32:15;;;;;;;4.18;2.80;;;21.40;86.70;24.30;100242.00;;;;5451133;26;20429;-51
2024/05/04 07:34:41;;;;;;;6.78;2.50;;;21.40;85.50;24.60;100248.00;;;;5422376;26;20401;-49
2024/05/04 07:37:08;;;;;;;8.07;2.75;;;21.40;84.60;24.90;100251.00;;;;5422123;26;19992;-50
2024/05/04 07:39:34;;;;;;;6.50;3.05;;;21.70;82.80;25.20;100249.00;;;;5422066;26;20004;-60
2024/05/04 07:42:00;;;;;;;3.65;2.58;;;22.00;82.00;25.50;100248.00;;;;5422084;26;19995;-50
2024/05/04 07:44:26;;;;;;;4.40;2.88;;;22.10;82.10;24.80;100251.00;;;;5422072;26;20068;-50
2024/05/04 07:46:53;;;;;;;8.82;2.47;;;21.90;80.90;25.70;100249.00;;;;5421749;26;20493;-51
2024/05/04 07:49:19;;;;;;;4.35;2.75;;;22.10;81.60;25.80;100262.00;;;;5422848;26;19992;-50
2024/05/04 07:51:45;;;;;;;6.82;2.95;;;22.40;80.60;26.20;100258.00;;;;5422073;26;19995;-51
2024/05/04 07:54:11;;;;;;;4.10;2.60;;;22.70;79.50;26.70;100257.00;;;;5421801;26;19998;-50
2024/05/04 07:56:37;;;;;;;5.25;2.35;;;22.90;79.20;26.00;100264.00;;;;5421727;26;20006;-50
2024/05/04 07:59:05;;;;;;;6.03;2.72;;;22.90;76.30;26.00;100255.00;;;;5420303;26;20000;-51
2024/05/04 08:01:31;;;;;;;6.65;2.97;;;22.80;76.40;26.30;100256.00;;;;5422004;26;19995;-53
2024/05/04 08:03:57;;;;;;;2.80;2.60;;;23.00;76.20;26.40;100252.00;;;;5422424;26;20003;-50
2024/05/04 08:06:23;;;;;;;3.50;2.50;;;23.30;73.80;26.30;100259.00;;;;5422058;26;20094;-50
2024/05/04 08:08:50;;;;;;;4.75;2.45;;;23.40;73.80;26.80;100259.00;;;;5421929;26;19988;-51
2024/05/04 08:11:16;;;;;;;6.07;2.35;;;23.60;73.00;27.00;100253.00;;;;5422355;26;20455;-51
2024/05/04 08:13:42;;;;;;;6.63;2.70;;;23.60;73.30;26.90;100256.00;;;;5422341;26;20317;-51
2024/05/04 08:16:08;;;;;;;9.73;2.58;;;23.90;71.40;26.70;100257.00;;;;5451168;26;20363;-50
2024/05/04 08:18:35;;;;;;;5.10;2.60;;;23.80;70.70;27.40;100257.00;;;;5421592;26;20343;-51
2024/05/04 08:21:01;;;;;;;6.78;2.90;;;23.90;71.10;26.90;100256.00;;;;5422287;26;20003;-54
2024/05/04 08:23:27;;;;;;;8.57;5.70;;;24.00;70.70;27.20;100250.00;;;;5422122;26;19996;-58
2024/05/04 08:25:53;;;;;;;5.15;2.67;;;24.00;70.10;27.70;100253.00;;;;5421447;26;20471;-51
2024/05/04 08:28:19;;;;;;;5.57;2.42;;;24.20;70.50;27.70;100248.00;;;;5422634;26;19996;-50
2024/05/04 08:30:45;;;;;;;6.47;2.42;;;24.30;70.40;27.40;100253.00;;;;5450173;26;20048;-50
2024/05/04 08:33:12;;;;;;;5.50;2.58;;;24.50;69.30;27.70;100258.00;;;;5453185;26;19987;-51
2024/05/04 08:35:38;;;;;;;4.28;2.60;;;24.70;68.90;27.90;100247.00;;;;5454503;26;20002;-51
2024/05/04 08:38:10;;;;;;;4.07;2.08;;;24.80;68.00;28.10;100254.00;;;;5457529;26;19991;-51
2024/05/04 08:40:37;;;;;;;5.30;2.13;;;25.00;66.00;27.80;100252.00;;;;5455953;26;20129;-50
2024/05/04 08:43:05;;;;;;;6.35;2.28;;;25.10;65.70;28.30;100245.00;;;;5457644;26;20071;-57
2024/05/04 08:45:33;;;;;;;6.65;2.30;;;25.30;65.70;27.90;100247.00;;;;5458083;26;19994;-50
2024/05/04 08:48:04;;;;;;;5.03;1.98;;;24.90;64.20;27.80;100244.00;;;;5458488;26;19991;-49
2024/05/04 08:50:30;;;;;;;6.72;2.30;;;25.00;63.60;28.50;100249.00;;;;5458713;26;19994;-50
2024/05/04 08:52:56;;;;;;;8.35;2.40;;;25.20;64.40;28.60;100233.00;;;;5458548;26;20116;-51
2024/05/04 08:55:23;;;;;;;3.08;2.10;;;25.60;62.90;28.70;100239.00;;;;5457754;26;19992;-51
2024/05/04 08:57:50;;;;;;;7.57;2.50;;;25.90;62.40;29.40;100231.00;;;;5458606;26;20006;-50
2024/05/04 09:00:18;;;;;;;5.85;2.30;;;26.10;62.30;29.70;100229.00;;;;5457712;26;19995;-51
2024/05/04 09:02:44;;;;;;;7.65;2.67;;;26.40;61.30;29.00;100232.00;;;;5458856;26;20063;-50
2024/05/04 09:05:13;;;;;;;6.15;2.28;;;26.40;61.50;29.30;100236.00;;;;5458664;26;19995;-53
2024/05/04 09:07:39;;;;;;;11.88;2.70;;;26.20;61.20;29.70;100238.00;;;;5458274;26;19986;-49
2024/05/04 09:10:05;;;;;;;4.60;2.60;;;26.60;60.00;29.70;100236.00;;;;5457529;26;20143;-56
2024/05/04 09:12:33;;;;;;;4.32;2.13;;;26.80;59.30;29.90;100241.00;;;;5456361;26;19999;-53
2024/05/04 09:14:59;;;;;;;9.55;2.58;;;27.10;59.00;30.60;100236.00;;;;5458188;26;20309;-53
2024/05/04 09:17:26;;;;;;;5.07;2.45;;;27.50;59.30;30.60;100238.00;;;;5457783;26;20314;-50
2024/05/04 09:19:52;;;;;;;5.30;2.40;;;27.70;57.80;30.40;100234.00;;;;5457841;26;20003;-56
2024/05/04 09:22:18;;;;;;;6.18;2.83;;;27.60;58.20;31.30;100241.00;;;;5456956;26;20088;-51
2024/05/04 09:24:45;;;;;;;4.22;2.35;;;27.70;57.90;30.90;100234.00;;;;5456798;26;19995;-54
2024/05/04 09:27:11;;;;;;;4.32;2.20;;;28.10;57.30;31.40;100239.00;;;;5457558;26;19999;-50
2024/05/04 09:29:38;;;;;;;5.38;2.28;;;28.20;58.40;32.10;100235.00;;;;5456941;26;20050;-51
2024/05/04 09:32:08;;;;;;;6.97;2.63;;;29.00;56.70;32.90;100248.00;;;;5456577;26;20006;-52
2024/05/04 09:34:38;;;;;;;3.08;2.20;;;29.60;54.40;32.60;100243.00;;;;5456945;26;20011;-50
2024/05/04 09:37:18;;;;;;;5.00;2.08;;;29.90;53.30;32.60;100238.00;;;;5456979;26;19991;-51
2024/05/04 09:39:45;;;;;;;5.85;2.20;;;30.00;52.60;33.30;100242.00;;;;5455554;26;19990;-49
2024/05/04 09:42:12;;;;;;;8.93;2.10;;;30.40;51.30;33.20;100235.00;;;;5457887;26;20006;-50
2024/05/04 09:44:40;;;;;;;4.60;2.35;;;30.20;51.80;34.50;100231.00;;;;5457258;26;20001;-50
2024/05/04 09:47:07;;;;;;;5.35;2.22;;;30.50;51.20;34.90;100234.00;;;;5456721;26;20003;-51
2024/05/04 09:49:36;;;;;;;3.70;2.00;;;30.90;51.90;35.90;100232.00;;;;5456936;26;20026;-50
2024/05/04 09:52:05;;;;;;;6.22;2.55;;;31.70;49.60;35.80;100236.00;;;;5456403;26;19999;-52
2024/05/04 09:54:31;;;;;;;6.50;2.30;;;32.20;49.40;35.20;100237.00;;;;5456326;26;19991;-51
2024/05/04 09:57:02;;;;;;;9.38;2.30;;;31.60;48.70;35.10;100231.00;;;;5455214;26;20002;-50
2024/05/04 09:59:30;;;;;;;3.67;2.13;;;31.30;49.80;35.60;100238.00;;;;5456490;26;19991;-51
2024/05/04 10:01:58;;;;;;;3.50;2.03;;;31.90;49.20;34.80;100239.00;;;;5456835;26;20063;-51
2024/05/04 10:04:28;;;;;;;2.08;1.88;;;32.00;47.80;34.90;100241.00;;;;5456402;26;19987;-50
2024/05/04 10:06:56;;;;;;;6.43;2.22;;;31.90;48.20;35.10;100235.00;;;;5457075;26;19999;-54
2024/05/04 10:09:22;;;;;;;5.78;2.63;;;32.20;47.80;35.10;100235.00;;;;5456236;26;20386;-52
2024/05/04 10:11:48;;;;;;;4.78;1.83;;;31.50;47.40;34.80;100240.00;;;;5456605;26;19990;-57
2024/05/04 10:14:19;;;;;;;7.30;2.03;;;32.00;46.90;35.70;100242.00;;;;5456967;26;19991;-50
2024/05/04 10:16:50;;;;;;;4.18;2.20;;;31.90;46.50;36.30;100232.00;;;;5456706;26;19994;-50
2024/05/04 10:19:21;;;;;;;7.95;2.05;;;32.00;46.50;36.40;100241.00;;;;5456214;26;19987;-51
2024/05/04 10:21:49;;;;;;;6.78;2.28;;;32.50;46.80;36.80;100241.00;;;;5456635;26;19991;-54
2024/05/04 10:24:28;;;;;;;6.80;2.50;;;32.90;46.00;36.00;100239.00;;;;5457852;26;19995;-53
2024/05/04 10:26:56;;;;;;;7.85;2.33;;;33.50;45.90;36.30;100225.00;;;;5457800;26;20002;-59
2024/05/04 10:29:23;;;;;;;5.63;2.05;;;33.30;45.10;36.50;100236.00;;;;5455328;26;19999;-51
2024/05/04 10:31:49;;;;;;;7.80;2.10;;;33.60;46.00;35.30;100242.00;;;;5456736;26;19991;-52
2024/05/04 10:34:16;;;;;;;6.28;2.35;;;33.40;44.50;35.50;100245.00;;;;5456358;26;19991;-50
2024/05/04 10:36:45;;;;;;;7.60;2.20;;;33.10;45.20;35.60;100243.00;;;;5455508;26;20340;-52
2024/05/04 10:39:11;;;;;;;5.78;2.33;;;33.50;44.80;34.20;100240.00;;;;5455375;26;20416;-52
2024/05/04 10:41:37;;;;;;;5.15;2.08;;;33.10;44.70;35.20;100239.00;;;;5455024;26;19995;-50